sensor_id;sensor_type;location;lat;lon;timestamp;P1;durP1;ratioP1;P2;durP2;ratioP2
48881;SDS011;57063;51.406;-2.402;2022-07-23T00:00:49;6.47;;;2.63;;
48881;SDS011;57063;51.406;-2.402;2022-07-23T00:03:15;10.05;;;2.80;;
48881;SDS011;57063;51.406;-2.402;2022-07-23T00:05:40;5.78;;;2.90;;
48881;SDS011;57063;51.406;-2.402;2022-07-23T00:08:06;10.73;;;3.53;;
48881;SDS011;57063;51.406;-2.402;2022-07-23T00:10:32;13.32;;;3.95;;
48881;SDS011;57063;51.406;-2.402;2022-07-23T00:12:58;8.45;;;3.35;;
48881;SDS011;57063;51.406;-2.402;2022-07-23T00:15:23;10.55;;;3.63;;
48881;SDS011;57063;51.406;-2.402;2022-07-23T00:17:49;13.68;;;4.25;;
48881;SDS011;57063;51.406;-2.402;2022-07-23T00:20:14;8.70;;;3.55;;
48881;SDS011;57063;51.406;-2.402;2022-07-23T00:22:49;7.50;;;3.50;;
48881;SDS011;57063;51.406;-2.402;2022-07-23T00:25:15;8.02;;;3.83;;
48881;SDS011;57063;51.406;-2.402;2022-07-23T00:27:40;13.35;;;4.50;;
48881;SDS011;57063;51.406;-2.402;2022-07-23T00:30:06;6.45;;;4.00;;
48881;SDS011;57063;51.406;-2.402;2022-07-23T00:32:32;8.48;;;4.13;;
48881;SDS011;57063;51.406;-2.402;2022-07-23T00:35:10;11.32;;;3.92;;
48881;SDS011;57063;51.406;-2.402;2022-07-23T00:37:35;7.97;;;3.83;;
48881;SDS011;57063;51.406;-2.402;2022-07-23T00:40:00;9.50;;;3.83;;
48881;SDS011;57063;51.406;-2.402;2022-07-23T00:42:26;11.45;;;3.83;;
48881;SDS011;57063;51.406;-2.402;2022-07-23T00:44:51;8.65;;;4.30;;
48881;SDS011;57063;51.406;-2.402;2022-07-23T00:47:16;8.98;;;4.72;;
48881;SDS011;57063;51.406;-2.402;2022-07-23T00:49:42;12.07;;;5.25;;
48881;SDS011;57063;51.406;-2.402;2022-07-23T00:52:07;9.27;;;5.15;;
48881;SDS011;57063;51.406;-2.402;2022-07-23T00:54:32;13.10;;;6.00;;
48881;SDS011;57063;51.406;-2.402;2022-07-23T00:56:58;13.90;;;6.70;;
48881;SDS011;57063;51.406;-2.402;2022-07-23T00:59:23;15.70;;;7.40;;
48881;SDS011;57063;51.406;-2.402;2022-07-23T01:01:48;11.05;;;5.80;;
48881;SDS011;57063;51.406;-2.402;2022-07-23T01:04:14;13.80;;;6.88;;
48881;SDS011;57063;51.406;-2.402;2022-07-23T01:06:40;17.17;;;7.72;;
48881;SDS011;57063;51.406;-2.402;2022-07-23T01:09:05;19.58;;;7.90;;
48881;SDS011;57063;51.406;-2.402;2022-07-23T01:11:35;13.27;;;7.03;;
48881;SDS011;57063;51.406;-2.402;2022-07-23T01:14:35;12.05;;;6.68;;
48881;SDS011;57063;51.406;-2.402;2022-07-23T01:16:53;14.55;;;6.03;;
48881;SDS011;57063;51.406;-2.402;2022-07-23T01:19:19;15.68;;;5.95;;
48881;SDS011;57063;51.406;-2.402;2022-07-23T01:21:45;13.38;;;6.88;;
48881;SDS011;57063;51.406;-2.402;2022-07-23T01:24:12;14.30;;;6.13;;
48881;SDS011;57063;51.406;-2.402;2022-07-23T01:26:41;10.82;;;6.32;;
48881;SDS011;57063;51.406;-2.402;2022-07-23T01:29:08;8.13;;;5.70;;
48881;SDS011;57063;51.406;-2.402;2022-07-23T01:31:33;9.32;;;5.70;;
48881;SDS011;57063;51.406;-2.402;2022-07-23T01:33:59;7.07;;;5.32;;
48881;SDS011;57063;51.406;-2.402;2022-07-23T01:36:24;7.82;;;5.43;;
48881;SDS011;57063;51.406;-2.402;2022-07-23T01:38:50;9.75;;;5.22;;
48881;SDS011;57063;51.406;-2.402;2022-07-23T01:41:15;10.85;;;5.28;;
48881;SDS011;57063;51.406;-2.402;2022-07-23T01:43:41;12.02;;;5.70;;
48881;SDS011;57063;51.406;-2.402;2022-07-23T01:46:06;10.80;;;5.65;;
48881;SDS011;57063;51.406;-2.402;2022-07-23T01:48:31;14.00;;;5.47;;
48881;SDS011;57063;51.406;-2.402;2022-07-23T01:50:57;7.72;;;4.35;;
48881;SDS011;57063;51.406;-2.402;2022-07-23T01:53:22;11.27;;;5.18;;
48881;SDS011;57063;51.406;-2.402;2022-07-23T01:55:48;7.82;;;4.68;;
48881;SDS011;57063;51.406;-2.402;2022-07-23T01:58:13;9.43;;;4.20;;
48881;SDS011;57063;51.406;-2.402;2022-07-23T02:00:39;7.88;;;4.82;;
48881;SDS011;57063;51.406;-2.402;2022-07-23T02:03:04;11.13;;;4.43;;
48881;SDS011;57063;51.406;-2.402;2022-07-23T02:05:29;5.93;;;4.47;;
48881;SDS011;57063;51.406;-2.402;2022-07-23T02:07:56;12.10;;;4.63;;
48881;SDS011;57063;51.406;-2.402;2022-07-23T02:10:23;5.05;;;3.63;;
48881;SDS011;57063;51.406;-2.402;2022-07-23T02:12:49;7.82;;;4.65;;
48881;SDS011;57063;51.406;-2.402;2022-07-23T02:15:14;9.25;;;4.50;;
48881;SDS011;57063;51.406;-2.402;2022-07-23T02:17:40;28.45;;;4.50;;
48881;SDS011;57063;51.406;-2.402;2022-07-23T02:20:06;11.43;;;4.75;;
48881;SDS011;57063;51.406;-2.402;2022-07-23T02:22:32;6.65;;;3.58;;
48881;SDS011;57063;51.406;-2.402;2022-07-23T02:24:58;7.25;;;4.10;;
48881;SDS011;57063;51.406;-2.402;2022-07-23T02:27:23;9.57;;;4.15;;
48881;SDS011;57063;51.406;-2.402;2022-07-23T02:29:49;7.80;;;4.45;;
48881;SDS011;57063;51.406;-2.402;2022-07-23T02:32:15;6.88;;;3.60;;
48881;SDS011;57063;51.406;-2.402;2022-07-23T02:34:41;6.90;;;4.07;;
48881;SDS011;57063;51.406;-2.402;2022-07-23T02:37:06;5.30;;;3.42;;
48881;SDS011;57063;51.406;-2.402;2022-07-23T02:39:33;9.35;;;4.00;;
48881;SDS011;57063;51.406;-2.402;2022-07-23T02:41:59;7.90;;;3.97;;
48881;SDS011;57063;51.406;-2.402;2022-07-23T02:44:25;7.57;;;3.78;;
48881;SDS011;57063;51.406;-2.402;2022-07-23T02:46:50;8.05;;;3.90;;
48881;SDS011;57063;51.406;-2.402;2022-07-23T02:49:15;7.50;;;4.35;;
48881;SDS011;57063;51.406;-2.402;2022-07-23T02:51:40;8.63;;;4.18;;
48881;SDS011;57063;51.406;-2.402;2022-07-23T02:54:06;9.55;;;4.50;;
48881;SDS011;57063;51.406;-2.402;2022-07-23T02:56:31;4.43;;;3.50;;
48881;SDS011;57063;51.406;-2.402;2022-07-23T02:58:56;10.68;;;4.25;;
48881;SDS011;57063;51.406;-2.402;2022-07-23T03:01:22;9.70;;;3.70;;
48881;SDS011;57063;51.406;-2.402;2022-07-23T03:03:47;8.00;;;3.78;;
48881;SDS011;57063;51.406;-2.402;2022-07-23T03:06:12;6.03;;;3.60;;
48881;SDS011;57063;51.406;-2.402;2022-07-23T03:08:38;8.63;;;4.30;;
48881;SDS011;57063;51.406;-2.402;2022-07-23T03:11:04;6.35;;;3.85;;
48881;SDS011;57063;51.406;-2.402;2022-07-23T03:13:32;7.53;;;3.90;;
48881;SDS011;57063;51.406;-2.402;2022-07-23T03:15:58;8.80;;;3.90;;
48881;SDS011;57063;51.406;-2.402;2022-07-23T03:18:23;11.85;;;3.60;;
48881;SDS011;57063;51.406;-2.402;2022-07-23T03:20:49;5.78;;;3.85;;
48881;SDS011;57063;51.406;-2.402;2022-07-23T03:23:14;5.65;;;3.55;;
48881;SDS011;57063;51.406;-2.402;2022-07-23T03:25:41;5.63;;;3.80;;
48881;SDS011;57063;51.406;-2.402;2022-07-23T03:28:06;6.53;;;3.88;;
48881;SDS011;57063;51.406;-2.402;2022-07-23T03:30:32;13.13;;;4.80;;
48881;SDS011;57063;51.406;-2.402;2022-07-23T03:32:57;9.25;;;4.75;;
48881;SDS011;57063;51.406;-2.402;2022-07-23T03:35:22;10.75;;;4.72;;
48881;SDS011;57063;51.406;-2.402;2022-07-23T03:37:48;10.02;;;4.85;;
48881;SDS011;57063;51.406;-2.402;2022-07-23T03:40:13;11.43;;;4.75;;
48881;SDS011;57063;51.406;-2.402;2022-07-23T03:42:39;8.35;;;4.90;;
48881;SDS011;57063;51.406;-2.402;2022-07-23T03:45:06;7.03;;;4.43;;
48881;SDS011;57063;51.406;-2.402;2022-07-23T03:47:31;4.60;;;3.50;;
48881;SDS011;57063;51.406;-2.402;2022-07-23T03:49:57;9.27;;;3.80;;
48881;SDS011;57063;51.406;-2.402;2022-07-23T03:52:22;8.50;;;4.22;;
48881;SDS011;57063;51.406;-2.402;2022-07-23T03:54:47;6.53;;;3.90;;
48881;SDS011;57063;51.406;-2.402;2022-07-23T03:57:13;7.10;;;4.38;;
48881;SDS011;57063;51.406;-2.402;2022-07-23T03:59:38;6.63;;;3.70;;
48881;SDS011;57063;51.406;-2.402;2022-07-23T04:02:03;5.47;;;3.72;;
48881;SDS011;57063;51.406;-2.402;2022-07-23T04:04:29;8.85;;;3.67;;
48881;SDS011;57063;51.406;-2.402;2022-07-23T04:06:54;5.25;;;4.00;;
48881;SDS011;57063;51.406;-2.402;2022-07-23T04:09:20;13.43;;;4.57;;
48881;SDS011;57063;51.406;-2.402;2022-07-23T04:11:45;6.05;;;4.13;;
48881;SDS011;57063;51.406;-2.402;2022-07-23T04:14:10;7.35;;;4.45;;
48881;SDS011;57063;51.406;-2.402;2022-07-23T04:16:36;9.27;;;3.47;;
48881;SDS011;57063;51.406;-2.402;2022-07-23T04:19:01;6.40;;;4.20;;
48881;SDS011;57063;51.406;-2.402;2022-07-23T04:21:29;13.60;;;4.28;;
48881;SDS011;57063;51.406;-2.402;2022-07-23T04:23:54;8.10;;;4.70;;
48881;SDS011;57063;51.406;-2.402;2022-07-23T04:26:20;6.00;;;4.30;;
48881;SDS011;57063;51.406;-2.402;2022-07-23T04:28:46;6.28;;;3.90;;
48881;SDS011;57063;51.406;-2.402;2022-07-23T04:31:11;5.00;;;3.70;;
48881;SDS011;57063;51.406;-2.402;2022-07-23T04:33:37;7.25;;;4.10;;
48881;SDS011;57063;51.406;-2.402;2022-07-23T04:36:02;7.10;;;3.55;;
48881;SDS011;57063;51.406;-2.402;2022-07-23T04:38:28;5.30;;;4.03;;
48881;SDS011;57063;51.406;-2.402;2022-07-23T04:40:54;5.60;;;3.70;;
48881;SDS011;57063;51.406;-2.402;2022-07-23T04:43:19;6.50;;;4.00;;
48881;SDS011;57063;51.406;-2.402;2022-07-23T04:45:45;9.65;;;4.55;;
48881;SDS011;57063;51.406;-2.402;2022-07-23T04:48:10;9.30;;;4.03;;
48881;SDS011;57063;51.406;-2.402;2022-07-23T04:50:36;8.98;;;4.70;;
48881;SDS011;57063;51.406;-2.402;2022-07-23T04:53:01;4.35;;;3.63;;
48881;SDS011;57063;51.406;-2.402;2022-07-23T04:55:27;5.90;;;4.00;;
48881;SDS011;57063;51.406;-2.402;2022-07-23T04:57:53;7.93;;;4.75;;
48881;SDS011;57063;51.406;-2.402;2022-07-23T05:00:18;10.43;;;5.55;;
48881;SDS011;57063;51.406;-2.402;2022-07-23T05:02:43;7.18;;;5.03;;
48881;SDS011;57063;51.406;-2.402;2022-07-23T05:05:09;13.80;;;5.28;;
48881;SDS011;57063;51.406;-2.402;2022-07-23T05:07:34;12.57;;;5.15;;
48881;SDS011;57063;51.406;-2.402;2022-07-23T05:09:59;6.95;;;5.47;;
48881;SDS011;57063;51.406;-2.402;2022-07-23T05:12:25;16.95;;;5.82;;
48881;SDS011;57063;51.406;-2.402;2022-07-23T05:14:50;6.38;;;4.80;;
48881;SDS011;57063;51.406;-2.402;2022-07-23T05:17:16;6.25;;;4.75;;
48881;SDS011;57063;51.406;-2.402;2022-07-23T05:19:41;9.10;;;5.45;;
48881;SDS011;57063;51.406;-2.402;2022-07-23T05:22:07;7.65;;;5.47;;
48881;SDS011;57063;51.406;-2.402;2022-07-23T05:24:32;12.48;;;5.28;;
48881;SDS011;57063;51.406;-2.402;2022-07-23T05:26:57;8.25;;;4.95;;
48881;SDS011;57063;51.406;-2.402;2022-07-23T05:29:23;8.45;;;4.65;;
48881;SDS011;57063;51.406;-2.402;2022-07-23T05:31:48;5.80;;;5.03;;
48881;SDS011;57063;51.406;-2.402;2022-07-23T05:34:14;5.40;;;4.43;;
48881;SDS011;57063;51.406;-2.402;2022-07-23T05:36:39;7.68;;;5.30;;
48881;SDS011;57063;51.406;-2.402;2022-07-23T05:39:04;8.32;;;4.07;;
48881;SDS011;57063;51.406;-2.402;2022-07-23T05:41:30;8.18;;;4.57;;
48881;SDS011;57063;51.406;-2.402;2022-07-23T05:43:55;6.75;;;5.63;;
48881;SDS011;57063;51.406;-2.402;2022-07-23T05:46:21;11.55;;;5.20;;
48881;SDS011;57063;51.406;-2.402;2022-07-23T05:48:46;6.20;;;4.68;;
48881;SDS011;57063;51.406;-2.402;2022-07-23T05:51:21;11.30;;;4.97;;
48881;SDS011;57063;51.406;-2.402;2022-07-23T05:53:47;6.72;;;4.53;;
48881;SDS011;57063;51.406;-2.402;2022-07-23T05:56:13;6.22;;;4.50;;
48881;SDS011;57063;51.406;-2.402;2022-07-23T05:58:39;5.55;;;4.07;;
48881;SDS011;57063;51.406;-2.402;2022-07-23T06:01:04;6.82;;;5.20;;
48881;SDS011;57063;51.406;-2.402;2022-07-23T06:03:30;9.05;;;5.35;;
48881;SDS011;57063;51.406;-2.402;2022-07-23T06:05:55;9.32;;;4.78;;
48881;SDS011;57063;51.406;-2.402;2022-07-23T06:08:20;7.05;;;4.18;;
48881;SDS011;57063;51.406;-2.402;2022-07-23T06:10:46;7.20;;;4.30;;
48881;SDS011;57063;51.406;-2.402;2022-07-23T06:13:11;7.35;;;4.38;;
48881;SDS011;57063;51.406;-2.402;2022-07-23T06:15:36;7.30;;;4.20;;
48881;SDS011;57063;51.406;-2.402;2022-07-23T06:18:02;6.18;;;3.80;;
48881;SDS011;57063;51.406;-2.402;2022-07-23T06:20:27;6.43;;;4.00;;
48881;SDS011;57063;51.406;-2.402;2022-07-23T06:22:53;6.55;;;4.35;;
48881;SDS011;57063;51.406;-2.402;2022-07-23T06:25:18;8.02;;;4.28;;
48881;SDS011;57063;51.406;-2.402;2022-07-23T06:27:45;6.43;;;4.40;;
48881;SDS011;57063;51.406;-2.402;2022-07-23T06:30:11;8.13;;;4.53;;
48881;SDS011;57063;51.406;-2.402;2022-07-23T06:32:37;8.90;;;4.15;;
48881;SDS011;57063;51.406;-2.402;2022-07-23T06:35:02;5.85;;;4.10;;
48881;SDS011;57063;51.406;-2.402;2022-07-23T06:37:28;8.05;;;4.95;;
48881;SDS011;57063;51.406;-2.402;2022-07-23T06:39:53;6.93;;;4.20;;
48881;SDS011;57063;51.406;-2.402;2022-07-23T06:42:19;6.53;;;4.40;;
48881;SDS011;57063;51.406;-2.402;2022-07-23T06:44:44;9.52;;;4.47;;
48881;SDS011;57063;51.406;-2.402;2022-07-23T06:47:10;5.90;;;3.70;;
48881;SDS011;57063;51.406;-2.402;2022-07-23T06:49:35;9.52;;;4.82;;
48881;SDS011;57063;51.406;-2.402;2022-07-23T06:52:01;9.77;;;4.28;;
48881;SDS011;57063;51.406;-2.402;2022-07-23T06:54:26;7.75;;;4.20;;
48881;SDS011;57063;51.406;-2.402;2022-07-23T06:56:51;13.18;;;4.68;;
48881;SDS011;57063;51.406;-2.402;2022-07-23T06:59:16;7.40;;;3.35;;
48881;SDS011;57063;51.406;-2.402;2022-07-23T07:01:42;8.05;;;3.40;;
48881;SDS011;57063;51.406;-2.402;2022-07-23T07:04:07;6.95;;;3.50;;
48881;SDS011;57063;51.406;-2.402;2022-07-23T07:06:33;6.72;;;2.95;;
48881;SDS011;57063;51.406;-2.402;2022-07-23T07:08:59;4.63;;;2.75;;
48881;SDS011;57063;51.406;-2.402;2022-07-23T07:11:24;6.85;;;2.65;;
48881;SDS011;57063;51.406;-2.402;2022-07-23T07:13:50;3.78;;;2.17;;
48881;SDS011;57063;51.406;-2.402;2022-07-23T07:16:16;7.47;;;2.22;;
48881;SDS011;57063;51.406;-2.402;2022-07-23T07:18:42;2.08;;;1.70;;
48881;SDS011;57063;51.406;-2.402;2022-07-23T07:21:07;5.70;;;2.83;;
48881;SDS011;57063;51.406;-2.402;2022-07-23T07:23:33;3.85;;;2.03;;
48881;SDS011;57063;51.406;-2.402;2022-07-23T07:25:58;3.88;;;2.00;;
48881;SDS011;57063;51.406;-2.402;2022-07-23T07:28:23;3.70;;;1.83;;
48881;SDS011;57063;51.406;-2.402;2022-07-23T07:30:49;4.50;;;1.40;;
48881;SDS011;57063;51.406;-2.402;2022-07-23T07:33:14;3.67;;;1.40;;
48881;SDS011;57063;51.406;-2.402;2022-07-23T07:35:40;4.60;;;1.67;;
48881;SDS011;57063;51.406;-2.402;2022-07-23T07:38:05;1.77;;;1.42;;
48881;SDS011;57063;51.406;-2.402;2022-07-23T07:40:30;6.05;;;1.48;;
48881;SDS011;57063;51.406;-2.402;2022-07-23T07:42:56;1.90;;;0.95;;
48881;SDS011;57063;51.406;-2.402;2022-07-23T07:45:22;2.92;;;1.23;;
48881;SDS011;57063;51.406;-2.402;2022-07-23T07:47:48;5.75;;;1.10;;
48881;SDS011;57063;51.406;-2.402;2022-07-23T07:50:14;4.05;;;0.95;;
48881;SDS011;57063;51.406;-2.402;2022-07-23T07:52:40;1.80;;;1.00;;
48881;SDS011;57063;51.406;-2.402;2022-07-23T07:55:06;2.10;;;1.08;;
48881;SDS011;57063;51.406;-2.402;2022-07-23T07:57:33;3.72;;;0.90;;
48881;SDS011;57063;51.406;-2.402;2022-07-23T07:59:59;2.45;;;0.90;;
48881;SDS011;57063;51.406;-2.402;2022-07-23T08:02:25;1.77;;;0.98;;
48881;SDS011;57063;51.406;-2.402;2022-07-23T08:04:51;3.95;;;1.90;;
48881;SDS011;57063;51.406;-2.402;2022-07-23T08:07:16;1.55;;;0.60;;
48881;SDS011;57063;51.406;-2.402;2022-07-23T08:09:42;1.63;;;0.70;;
48881;SDS011;57063;51.406;-2.402;2022-07-23T08:12:07;2.03;;;0.65;;
48881;SDS011;57063;51.406;-2.402;2022-07-23T08:14:33;3.55;;;0.60;;
48881;SDS011;57063;51.406;-2.402;2022-07-23T08:16:58;1.73;;;0.70;;
48881;SDS011;57063;51.406;-2.402;2022-07-23T08:19:24;2.22;;;0.52;;
48881;SDS011;57063;51.406;-2.402;2022-07-23T08:21:49;1.50;;;0.52;;
48881;SDS011;57063;51.406;-2.402;2022-07-23T08:24:14;1.08;;;0.32;;
48881;SDS011;57063;51.406;-2.402;2022-07-23T08:26:40;0.90;;;0.45;;
48881;SDS011;57063;51.406;-2.402;2022-07-23T08:29:05;2.35;;;0.60;;
48881;SDS011;57063;51.406;-2.402;2022-07-23T08:31:31;2.70;;;0.50;;
48881;SDS011;57063;51.406;-2.402;2022-07-23T08:33:58;2.10;;;0.40;;
48881;SDS011;57063;51.406;-2.402;2022-07-23T08:36:23;3.75;;;0.60;;
48881;SDS011;57063;51.406;-2.402;2022-07-23T08:38:49;1.73;;;0.35;;
48881;SDS011;57063;51.406;-2.402;2022-07-23T08:41:14;3.28;;;0.43;;
48881;SDS011;57063;51.406;-2.402;2022-07-23T08:43:41;0.45;;;0.30;;
48881;SDS011;57063;51.406;-2.402;2022-07-23T08:46:07;5.68;;;0.93;;
48881;SDS011;57063;51.406;-2.402;2022-07-23T08:48:34;0.63;;;0.50;;
48881;SDS011;57063;51.406;-2.402;2022-07-23T08:51:02;0.93;;;0.35;;
48881;SDS011;57063;51.406;-2.402;2022-07-23T08:53:29;0.75;;;0.40;;
48881;SDS011;57063;51.406;-2.402;2022-07-23T08:55:57;0.30;;;0.20;;
48881;SDS011;57063;51.406;-2.402;2022-07-23T08:58:24;1.13;;;0.40;;
48881;SDS011;57063;51.406;-2.402;2022-07-23T09:00:50;0.90;;;0.50;;
48881;SDS011;57063;51.406;-2.402;2022-07-23T09:05:44;0.50;;;0.40;;
48881;SDS011;57063;51.406;-2.402;2022-07-23T09:08:10;0.40;;;0.30;;
48881;SDS011;57063;51.406;-2.402;2022-07-23T09:18:42;1.50;;;0.60;;
48881;SDS011;57063;51.406;-2.402;2022-07-23T09:26:45;1.50;;;0.60;;
48881;SDS011;57063;51.406;-2.402;2022-07-23T09:34:09;0.75;;;0.60;;
48881;SDS011;57063;51.406;-2.402;2022-07-23T09:36:37;2.17;;;1.00;;
48881;SDS011;57063;51.406;-2.402;2022-07-23T09:39:03;1.65;;;0.85;;
48881;SDS011;57063;51.406;-2.402;2022-07-23T09:41:42;1.85;;;1.33;;
48881;SDS011;57063;51.406;-2.402;2022-07-23T09:44:12;3.45;;;1.45;;
48881;SDS011;57063;51.406;-2.402;2022-07-23T09:46:40;2.08;;;0.80;;
48881;SDS011;57063;51.406;-2.402;2022-07-23T09:49:15;2.00;;;1.00;;
48881;SDS011;57063;51.406;-2.402;2022-07-23T09:51:43;5.38;;;1.30;;
48881;SDS011;57063;51.406;-2.402;2022-07-23T09:54:20;1.58;;;0.75;;
48881;SDS011;57063;51.406;-2.402;2022-07-23T09:56:55;1.88;;;0.80;;
48881;SDS011;57063;51.406;-2.402;2022-07-23T09:59:25;1.13;;;0.70;;
48881;SDS011;57063;51.406;-2.402;2022-07-23T10:01:57;2.53;;;0.77;;
48881;SDS011;57063;51.406;-2.402;2022-07-23T10:04:24;1.63;;;0.80;;
48881;SDS011;57063;51.406;-2.402;2022-07-23T10:06:52;3.03;;;0.70;;
48881;SDS011;57063;51.406;-2.402;2022-07-23T10:09:21;1.25;;;0.70;;
48881;SDS011;57063;51.406;-2.402;2022-07-23T10:11:49;0.90;;;0.60;;
48881;SDS011;57063;51.406;-2.402;2022-07-23T10:14:15;0.63;;;0.60;;
48881;SDS011;57063;51.406;-2.402;2022-07-23T10:16:42;3.17;;;0.70;;
48881;SDS011;57063;51.406;-2.402;2022-07-23T10:19:08;1.50;;;0.57;;
48881;SDS011;57063;51.406;-2.402;2022-07-23T10:21:36;1.23;;;0.60;;
48881;SDS011;57063;51.406;-2.402;2022-07-23T10:30:15;1.38;;;0.85;;
48881;SDS011;57063;51.406;-2.402;2022-07-23T10:35:33;2.45;;;0.70;;
48881;SDS011;57063;51.406;-2.402;2022-07-23T10:38:16;1.60;;;1.02;;
48881;SDS011;57063;51.406;-2.402;2022-07-23T10:40:59;2.17;;;1.30;;
48881;SDS011;57063;51.406;-2.402;2022-07-23T10:43:26;3.53;;;0.82;;
48881;SDS011;57063;51.406;-2.402;2022-07-23T10:45:53;2.28;;;1.20;;
48881;SDS011;57063;51.406;-2.402;2022-07-23T10:48:25;4.63;;;1.45;;
48881;SDS011;57063;51.406;-2.402;2022-07-23T10:51:11;1.92;;;0.90;;
48881;SDS011;57063;51.406;-2.402;2022-07-23T10:56:15;2.15;;;1.25;;
48881;SDS011;57063;51.406;-2.402;2022-07-23T10:58:50;3.15;;;1.30;;
48881;SDS011;57063;51.406;-2.402;2022-07-23T11:01:35;1.60;;;1.10;;
48881;SDS011;57063;51.406;-2.402;2022-07-23T11:04:03;2.15;;;1.08;;
48881;SDS011;57063;51.406;-2.402;2022-07-23T11:09:29;3.33;;;1.15;;
48881;SDS011;57063;51.406;-2.402;2022-07-23T11:22:37;2.20;;;1.40;;
48881;SDS011;57063;51.406;-2.402;2022-07-23T11:25:09;3.97;;;1.42;;
48881;SDS011;57063;51.406;-2.402;2022-07-23T11:27:36;1.98;;;1.40;;
48881;SDS011;57063;51.406;-2.402;2022-07-23T11:30:02;4.82;;;1.45;;
48881;SDS011;57063;51.406;-2.402;2022-07-23T11:32:29;2.40;;;1.27;;
48881;SDS011;57063;51.406;-2.402;2022-07-23T11:34:58;4.32;;;1.33;;
48881;SDS011;57063;51.406;-2.402;2022-07-23T11:37:34;4.68;;;1.20;;
48881;SDS011;57063;51.406;-2.402;2022-07-23T11:40:00;2.70;;;1.30;;
48881;SDS011;57063;51.406;-2.402;2022-07-23T11:42:27;1.42;;;1.10;;
48881;SDS011;57063;51.406;-2.402;2022-07-23T11:44:53;2.17;;;1.25;;
48881;SDS011;57063;51.406;-2.402;2022-07-23T11:47:23;5.70;;;1.77;;
48881;SDS011;57063;51.406;-2.402;2022-07-23T11:49:57;2.55;;;1.25;;
48881;SDS011;57063;51.406;-2.402;2022-07-23T11:52:24;2.60;;;1.33;;
48881;SDS011;57063;51.406;-2.402;2022-07-23T11:55:01;3.28;;;1.67;;
48881;SDS011;57063;51.406;-2.402;2022-07-23T11:57:30;6.75;;;1.48;;
48881;SDS011;57063;51.406;-2.402;2022-07-23T12:00:00;4.13;;;1.42;;
48881;SDS011;57063;51.406;-2.402;2022-07-23T12:02:30;4.40;;;1.42;;
48881;SDS011;57063;51.406;-2.402;2022-07-23T12:04:55;3.28;;;1.40;;
48881;SDS011;57063;51.406;-2.402;2022-07-23T12:07:28;3.05;;;1.55;;
48881;SDS011;57063;51.406;-2.402;2022-07-23T12:09:58;3.53;;;1.42;;
48881;SDS011;57063;51.406;-2.402;2022-07-23T12:12:42;2.17;;;1.17;;
48881;SDS011;57063;51.406;-2.402;2022-07-23T12:15:14;3.42;;;1.70;;
48881;SDS011;57063;51.406;-2.402;2022-07-23T12:17:44;3.25;;;1.30;;
48881;SDS011;57063;51.406;-2.402;2022-07-23T12:20:12;5.70;;;1.45;;
48881;SDS011;57063;51.406;-2.402;2022-07-23T12:22:41;3.67;;;1.30;;
48881;SDS011;57063;51.406;-2.402;2022-07-23T12:25:10;3.30;;;1.35;;
48881;SDS011;57063;51.406;-2.402;2022-07-23T12:27:37;6.53;;;1.27;;
48881;SDS011;57063;51.406;-2.402;2022-07-23T12:33:06;2.40;;;1.40;;
48881;SDS011;57063;51.406;-2.402;2022-07-23T12:35:40;3.78;;;1.23;;
48881;SDS011;57063;51.406;-2.402;2022-07-23T12:38:10;2.88;;;1.30;;
48881;SDS011;57063;51.406;-2.402;2022-07-23T12:40:47;1.92;;;1.08;;
48881;SDS011;57063;51.406;-2.402;2022-07-23T12:45:56;1.65;;;1.10;;
48881;SDS011;57063;51.406;-2.402;2022-07-23T12:48:25;3.20;;;1.73;;
48881;SDS011;57063;51.406;-2.402;2022-07-23T12:50:53;2.05;;;1.10;;
48881;SDS011;57063;51.406;-2.402;2022-07-23T12:56:03;6.93;;;1.33;;
48881;SDS011;57063;51.406;-2.402;2022-07-23T12:58:49;5.55;;;1.60;;
48881;SDS011;57063;51.406;-2.402;2022-07-23T13:03:54;2.10;;;1.20;;
48881;SDS011;57063;51.406;-2.402;2022-07-23T13:06:23;4.15;;;1.70;;
48881;SDS011;57063;51.406;-2.402;2022-07-23T13:08:48;3.08;;;1.85;;
48881;SDS011;57063;51.406;-2.402;2022-07-23T13:11:14;2.90;;;1.50;;
48881;SDS011;57063;51.406;-2.402;2022-07-23T13:13:39;1.75;;;1.02;;
48881;SDS011;57063;51.406;-2.402;2022-07-23T13:16:06;2.03;;;1.60;;
48881;SDS011;57063;51.406;-2.402;2022-07-23T13:18:31;4.75;;;2.10;;
48881;SDS011;57063;51.406;-2.402;2022-07-23T13:20:57;4.47;;;1.50;;
48881;SDS011;57063;51.406;-2.402;2022-07-23T13:23:22;3.05;;;1.90;;
48881;SDS011;57063;51.406;-2.402;2022-07-23T13:25:48;5.03;;;1.98;;
48881;SDS011;57063;51.406;-2.402;2022-07-23T13:28:14;5.28;;;2.10;;
48881;SDS011;57063;51.406;-2.402;2022-07-23T13:30:40;3.40;;;1.73;;
48881;SDS011;57063;51.406;-2.402;2022-07-23T13:33:06;4.90;;;2.13;;
48881;SDS011;57063;51.406;-2.402;2022-07-23T13:35:33;5.80;;;1.90;;
48881;SDS011;57063;51.406;-2.402;2022-07-23T13:37:59;3.17;;;1.60;;
48881;SDS011;57063;51.406;-2.402;2022-07-23T13:40:24;6.60;;;2.25;;
48881;SDS011;57063;51.406;-2.402;2022-07-23T13:42:50;2.78;;;1.50;;
48881;SDS011;57063;51.406;-2.402;2022-07-23T13:45:15;3.92;;;1.65;;
48881;SDS011;57063;51.406;-2.402;2022-07-23T13:47:40;3.95;;;1.50;;
48881;SDS011;57063;51.406;-2.402;2022-07-23T13:50:06;4.82;;;1.55;;
48881;SDS011;57063;51.406;-2.402;2022-07-23T13:52:31;2.80;;;1.52;;
48881;SDS011;57063;51.406;-2.402;2022-07-23T13:54:59;4.15;;;1.40;;
48881;SDS011;57063;51.406;-2.402;2022-07-23T13:57:26;4.72;;;1.17;;
48881;SDS011;57063;51.406;-2.402;2022-07-23T13:59:51;2.35;;;1.40;;
48881;SDS011;57063;51.406;-2.402;2022-07-23T14:02:17;3.95;;;1.70;;
48881;SDS011;57063;51.406;-2.402;2022-07-23T14:04:42;4.20;;;1.52;;
48881;SDS011;57063;51.406;-2.402;2022-07-23T14:07:09;3.60;;;1.40;;
48881;SDS011;57063;51.406;-2.402;2022-07-23T14:12:16;3.83;;;1.40;;
48881;SDS011;57063;51.406;-2.402;2022-07-23T14:14:41;6.22;;;1.80;;
48881;SDS011;57063;51.406;-2.402;2022-07-23T14:17:08;9.30;;;1.60;;
48881;SDS011;57063;51.406;-2.402;2022-07-23T14:19:34;6.47;;;1.92;;
48881;SDS011;57063;51.406;-2.402;2022-07-23T14:21:59;4.25;;;1.95;;
48881;SDS011;57063;51.406;-2.402;2022-07-23T14:24:25;6.07;;;2.05;;
48881;SDS011;57063;51.406;-2.402;2022-07-23T14:26:50;7.53;;;2.28;;
48881;SDS011;57063;51.406;-2.402;2022-07-23T14:29:15;5.80;;;2.00;;
48881;SDS011;57063;51.406;-2.402;2022-07-23T14:31:41;4.35;;;1.83;;
48881;SDS011;57063;51.406;-2.402;2022-07-23T14:34:07;4.20;;;1.80;;
48881;SDS011;57063;51.406;-2.402;2022-07-23T14:36:36;3.85;;;2.28;;
48881;SDS011;57063;51.406;-2.402;2022-07-23T14:39:04;6.07;;;2.28;;
48881;SDS011;57063;51.406;-2.402;2022-07-23T14:41:29;4.07;;;1.95;;
48881;SDS011;57063;51.406;-2.402;2022-07-23T14:43:56;5.00;;;2.30;;
48881;SDS011;57063;51.406;-2.402;2022-07-23T14:46:22;6.97;;;2.70;;
48881;SDS011;57063;51.406;-2.402;2022-07-23T14:48:49;4.47;;;2.20;;
48881;SDS011;57063;51.406;-2.402;2022-07-23T14:51:14;5.43;;;2.40;;
48881;SDS011;57063;51.406;-2.402;2022-07-23T14:53:40;3.80;;;2.67;;
48881;SDS011;57063;51.406;-2.402;2022-07-23T14:56:09;9.20;;;2.58;;
48881;SDS011;57063;51.406;-2.402;2022-07-23T14:58:38;8.27;;;2.45;;
48881;SDS011;57063;51.406;-2.402;2022-07-23T15:01:05;5.93;;;2.55;;
48881;SDS011;57063;51.406;-2.402;2022-07-23T15:03:32;4.18;;;2.58;;
48881;SDS011;57063;51.406;-2.402;2022-07-23T15:05:58;6.68;;;2.15;;
48881;SDS011;57063;51.406;-2.402;2022-07-23T15:08:24;6.60;;;2.10;;
48881;SDS011;57063;51.406;-2.402;2022-07-23T15:10:49;5.45;;;2.28;;
48881;SDS011;57063;51.406;-2.402;2022-07-23T15:13:15;4.45;;;2.30;;
48881;SDS011;57063;51.406;-2.402;2022-07-23T15:15:40;7.80;;;2.63;;
48881;SDS011;57063;51.406;-2.402;2022-07-23T15:18:05;6.53;;;2.15;;
48881;SDS011;57063;51.406;-2.402;2022-07-23T15:20:31;4.32;;;2.60;;
48881;SDS011;57063;51.406;-2.402;2022-07-23T15:22:56;5.57;;;2.10;;
48881;SDS011;57063;51.406;-2.402;2022-07-23T15:25:22;6.05;;;2.50;;
48881;SDS011;57063;51.406;-2.402;2022-07-23T15:27:48;4.50;;;2.10;;
48881;SDS011;57063;51.406;-2.402;2022-07-23T15:30:13;7.50;;;2.58;;